Time;durP1;ratioP1;P1;durP2;ratioP2;P2;SDS_P1;SDS_P2;PMS_P1;PMS_P2;Temp;Humidity;BMP_temperature;BMP_pressure;BME280_temperature;BME280_humidity;BME280_pressure;Samples;Min_cycle;Max_cycle;Signal;HPM_P1;HPM_P2
2022/01/10 00:00:19;;;;;;;24.63;10.88;;;;;;;-4.73;68.60;98802.78;5071011;28;20041;-58
2022/01/10 00:02:47;;;;;;;19.70;10.77;;;;;;;-4.75;68.76;98808.09;5071313;28;20471;-63
2022/01/10 00:05:13;;;;;;;22.13;10.80;;;;;;;-4.82;68.58;98804.50;5071018;28;20041;-61
2022/01/10 00:07:39;;;;;;;23.75;11.07;;;;;;;-4.84;68.63;98807.25;5054471;28;20048;-60
2022/01/10 00:10:06;;;;;;;26.33;11.15;;;;;;;-4.84;68.98;98806.44;5050843;28;20044;-62
2022/01/10 00:12:32;;;;;;;24.15;11.20;;;;;;;-4.86;68.71;98803.97;5051217;28;20036;-62
2022/01/10 00:14:58;;;;;;;17.92;10.05;;;;;;;-4.85;69.21;98812.56;5051078;28;20414;-61
2022/01/10 00:17:24;;;;;;;24.70;11.65;;;;;;;-4.84;69.87;98796.09;5050661;28;20053;-60
2022/01/10 00:19:50;;;;;;;23.30;11.75;;;;;;;-4.86;69.97;98806.56;5052160;28;20040;-60
2022/01/10 00:22:16;;;;;;;24.08;11.68;;;;;;;-4.92;69.26;98796.03;5051501;28;20041;-61
2022/01/10 00:24:42;;;;;;;28.58;11.90;;;;;;;-4.87;69.58;98810.13;5050419;28;20033;-61
2022/01/10 00:27:07;;;;;;;23.25;9.80;;;;;;;-4.83;69.12;98801.09;5052129;28;20480;-61
2022/01/10 00:29:35;;;;;;;28.13;12.15;;;;;;;-4.86;69.71;98792.84;5051878;28;20078;-61
2022/01/10 00:32:01;;;;;;;21.75;10.40;;;;;;;-4.94;69.37;98791.03;5050623;28;20056;-60
2022/01/10 00:34:27;;;;;;;21.33;10.55;;;;;;;-4.84;69.90;98790.91;5054183;28;20068;-63
2022/01/10 00:36:53;;;;;;;22.20;9.93;;;;;;;-5.00;69.29;98788.22;5069855;28;20493;-59
2022/01/10 00:39:20;;;;;;;25.55;11.13;;;;;;;-5.05;69.88;98793.88;5070798;28;20457;-59
2022/01/10 00:41:46;;;;;;;24.95;10.35;;;;;;;-5.09;69.28;98795.94;5053876;28;20060;-59
2022/01/10 00:44:13;;;;;;;22.75;11.00;;;;;;;-5.03;70.08;98790.16;5070282;28;20037;-61
2022/01/10 00:46:40;;;;;;;24.48;11.52;;;;;;;-4.96;68.76;98797.31;5070430;28;20549;-60
2022/01/10 00:49:06;;;;;;;24.33;10.88;;;;;;;-4.96;68.92;98795.53;5070273;28;20040;-60
2022/01/10 00:51:33;;;;;;;20.90;10.80;;;;;;;-4.93;69.67;98797.81;5070467;28;20048;-59
2022/01/10 00:53:59;;;;;;;23.20;10.50;;;;;;;-4.94;69.11;98796.19;5069622;28;20065;-62
2022/01/10 00:56:25;;;;;;;23.80;10.93;;;;;;;-4.91;69.40;98800.22;5053658;28;20149;-61
2022/01/10 00:58:52;;;;;;;26.05;11.43;;;;;;;-4.87;68.55;98796.41;5070604;28;20123;-60
2022/01/10 01:01:18;;;;;;;24.15;10.73;;;;;;;-4.92;69.27;98783.91;5070309;28;20052;-60
2022/01/10 01:03:46;;;;;;;19.92;10.35;;;;;;;-4.93;69.40;98794.44;5016787;28;20032;-61
2022/01/10 01:06:13;;;;;;;23.33;10.55;;;;;;;-4.96;69.52;98797.31;5050122;28;20084;-62
2022/01/10 01:08:41;;;;;;;20.95;10.27;;;;;;;-4.99;70.29;98795.03;5049981;28;20065;-60
2022/01/10 01:11:43;;;;;;;26.23;10.65;;;;;;;-4.96;69.72;98795.53;5049918;28;20407;-60
2022/01/10 01:13:56;;;;;;;23.42;10.80;;;;;;;-4.89;68.99;98795.72;5051099;28;20044;-61
2022/01/10 01:24:25;;;;;;;20.20;10.60;;;;;;;-4.91;69.92;98790.72;5051408;28;20045;-60
2022/01/10 01:26:52;;;;;;;23.52;11.18;;;;;;;-4.86;70.50;98796.22;5033643;28;20106;-61
2022/01/10 01:29:28;;;;;;;25.30;11.32;;;;;;;-4.70;69.99;98798.09;5051455;28;20037;-60
2022/01/10 01:31:55;;;;;;;31.25;11.32;;;;;;;-4.78;70.13;98787.72;5051403;28;20045;-59
2022/01/10 01:34:22;;;;;;;24.13;10.65;;;;;;;-4.76;69.75;98782.38;5051283;28;20053;-60
2022/01/10 01:36:52;;;;;;;24.42;10.35;;;;;;;-4.75;68.91;98790.00;5054160;28;20056;-61
2022/01/10 01:39:22;;;;;;;24.95;11.52;;;;;;;-4.68;69.41;98785.81;5054105;28;20125;-59
2022/01/10 01:42:05;;;;;;;24.20;12.00;;;;;;;-4.65;69.03;98782.13;5055206;28;20589;-62
2022/01/10 01:44:31;;;;;;;20.90;10.82;;;;;;;-4.65;68.89;98782.13;5055023;28;20041;-60
2022/01/10 01:46:58;;;;;;;21.38;10.48;;;;;;;-4.66;69.60;98781.31;5020651;28;20037;-61
2022/01/10 01:49:24;;;;;;;25.52;11.80;;;;;;;-4.78;69.32;98776.56;5037166;28;20037;-61
2022/01/10 01:51:51;;;;;;;25.50;11.13;;;;;;;-4.81;69.45;98773.31;5072020;28;20062;-62
2022/01/10 01:54:17;;;;;;;25.15;10.82;;;;;;;-4.82;68.90;98776.06;5036807;28;20063;-60
2022/01/10 01:56:44;;;;;;;25.65;12.02;;;;;;;-4.92;70.20;98771.00;5070088;28;20052;-60
2022/01/10 01:59:12;;;;;;;27.15;12.43;;;;;;;-4.86;69.84;98770.38;5043187;28;20501;-62
2022/01/10 02:01:38;;;;;;;28.17;11.50;;;;;;;-4.80;69.73;98768.94;5073720;28;20158;-61
2022/01/10 02:04:06;;;;;;;24.73;10.98;;;;;;;-4.82;69.53;98771.72;5074029;28;20082;-61
2022/01/10 02:06:31;;;;;;;27.13;12.93;;;;;;;-4.90;69.64;98779.41;5073415;28;20094;-60
2022/01/10 02:08:58;;;;;;;29.40;12.55;;;;;;;-4.88;69.85;98779.25;5074885;28;20045;-61
2022/01/10 02:11:24;;;;;;;33.22;12.73;;;;;;;-4.81;70.04;98777.69;5070794;28;20510;-60
2022/01/10 02:13:51;;;;;;;25.25;11.40;;;;;;;-4.74;69.92;98765.75;5072866;28;20098;-62
2022/01/10 02:16:45;;;;;;;32.40;12.52;;;;;;;-4.79;69.86;98775.75;5073481;28;20048;-61
2022/01/10 02:19:22;;;;;;;29.23;13.20;;;;;;;-4.84;69.79;98771.03;5059696;28;20068;-60
2022/01/10 02:21:48;;;;;;;31.25;12.93;;;;;;;-4.87;70.31;98760.19;5070457;28;20551;-60
2022/01/10 02:24:14;;;;;;;21.52;11.07;;;;;;;-4.93;69.73;98760.81;5053258;28;20040;-61
2022/01/10 02:26:40;;;;;;;26.73;12.27;;;;;;;-5.00;69.42;98759.78;5036510;28;20064;-61
2022/01/10 02:29:07;;;;;;;30.65;12.98;;;;;;;-5.18;69.61;98765.81;5036610;28;20047;-62
2022/01/10 02:31:39;;;;;;;24.80;12.20;;;;;;;-5.12;70.90;98767.81;5054555;28;20063;-61
2022/01/10 02:34:05;;;;;;;21.70;11.90;;;;;;;-4.91;69.64;98767.47;5052943;28;20041;-61
2022/01/10 02:36:31;;;;;;;23.13;11.68;;;;;;;-4.96;69.37;98766.28;5052841;28;20063;-61
2022/01/10 02:39:00;;;;;;;24.73;12.25;;;;;;;-4.93;69.33;98766.78;5053018;28;20568;-60
2022/01/10 02:41:34;;;;;;;25.95;12.25;;;;;;;-4.96;69.30;98767.09;5059872;28;20493;-61
2022/01/10 02:44:05;;;;;;;27.58;10.80;;;;;;;-5.14;69.47;98761.19;5072987;28;20127;-62
2022/01/10 02:46:34;;;;;;;25.17;10.82;;;;;;;-5.18;69.83;98759.84;5055981;28;20135;-60
2022/01/10 02:49:14;;;;;;;26.08;10.98;;;;;;;-5.26;69.96;98761.44;5072510;28;20123;-60
2022/01/10 02:51:42;;;;;;;25.45;11.75;;;;;;;-5.30;70.38;98770.44;5072726;28;20465;-61
2022/01/10 02:54:12;;;;;;;24.90;10.73;;;;;;;-5.30;70.06;98769.63;5056290;28;20366;-62
2022/01/10 02:56:49;;;;;;;21.20;11.60;;;;;;;-5.38;70.60;98770.41;5072452;28;20506;-59
2022/01/10 02:59:15;;;;;;;17.77;10.07;;;;;;;-5.30;70.58;98772.22;5055917;28;20052;-61
2022/01/10 03:01:41;;;;;;;24.90;11.32;;;;;;;-5.28;70.55;98770.28;5071698;28;20425;-59
2022/01/10 03:04:07;;;;;;;22.60;10.65;;;;;;;-5.42;69.72;98760.50;5071775;28;20143;-61
2022/01/10 03:06:33;;;;;;;22.83;9.50;;;;;;;-5.43;70.29;98771.81;5074099;28;20541;-61
2022/01/10 03:09:05;;;;;;;22.15;10.27;;;;;;;-5.62;70.97;98768.41;5072012;28;20048;-61
2022/01/10 03:11:35;;;;;;;22.13;10.60;;;;;;;-5.49;71.25;98779.19;5074164;28;20378;-61
2022/01/10 03:14:02;;;;;;;18.73;10.48;;;;;;;-5.45;70.91;98779.69;5072377;28;20039;-61
2022/01/10 03:16:28;;;;;;;19.08;9.52;;;;;;;-5.61;71.05;98782.16;5072528;28;20059;-61
2022/01/10 03:18:54;;;;;;;26.23;8.73;;;;;;;-5.56;71.53;98777.34;5072865;28;20430;-61
2022/01/10 03:21:20;;;;;;;20.98;9.70;;;;;;;-5.54;71.01;98786.56;5044861;28;20417;-60
2022/01/10 03:23:47;;;;;;;22.25;9.15;;;;;;;-5.51;70.92;98796.59;5053191;28;20510;-60
2022/01/10 03:26:14;;;;;;;15.40;8.07;;;;;;;-5.67;71.55;98787.91;5053279;28;20053;-60
2022/01/10 03:28:40;;;;;;;17.70;9.20;;;;;;;-5.60;71.56;98791.53;5044708;28;20049;-62
2022/01/10 03:31:07;;;;;;;17.73;7.72;;;;;;;-5.56;71.12;98791.09;5068452;28;20091;-59
2022/01/10 03:33:34;;;;;;;18.77;8.25;;;;;;;-5.53;71.56;98793.38;5052260;28;20062;-60
2022/01/10 03:36:00;;;;;;;18.08;8.63;;;;;;;-5.56;71.58;98792.84;5052904;28;20092;-61
2022/01/10 03:38:27;;;;;;;19.00;9.30;;;;;;;-5.55;71.02;98797.88;5051335;28;20037;-61
2022/01/10 03:40:53;;;;;;;19.80;8.90;;;;;;;-5.54;70.99;98802.06;5051911;28;20509;-61
2022/01/10 03:43:22;;;;;;;19.35;7.55;;;;;;;-5.78;71.20;98800.06;5018579;28;20068;-61
2022/01/10 03:45:48;;;;;;;16.63;8.60;;;;;;;-5.75;71.64;98796.41;5053010;28;20095;-61
2022/01/10 03:48:15;;;;;;;16.75;8.73;;;;;;;-5.68;71.55;98797.41;5051513;28;20048;-61
2022/01/10 03:50:41;;;;;;;18.73;8.68;;;;;;;-5.62;71.27;98798.59;5035105;28;20048;-61
2022/01/10 03:53:08;;;;;;;18.58;8.48;;;;;;;-5.60;71.39;98794.09;5051475;28;20342;-61
2022/01/10 03:55:34;;;;;;;16.90;7.13;;;;;;;-5.56;71.20;98796.25;5040151;28;20044;-61
2022/01/10 03:58:03;;;;;;;18.73;9.75;;;;;;;-5.63;71.18;98795.19;5050744;28;20037;-61
2022/01/10 04:00:29;;;;;;;19.85;9.10;;;;;;;-5.54;72.13;98796.91;5066959;28;20049;-60
2022/01/10 04:03:00;;;;;;;20.30;9.23;;;;;;;-5.54;71.61;98798.66;5072369;28;20037;-63
2022/01/10 04:05:33;;;;;;;20.27;9.55;;;;;;;-5.57;71.00;98796.38;5055049;28;20044;-61
2022/01/10 04:08:00;;;;;;;17.67;8.50;;;;;;;-5.58;71.32;98787.03;5070910;28;20068;-61
2022/01/10 04:10:27;;;;;;;17.60;8.70;;;;;;;-5.62;71.30;98796.00;5053914;28;20146;-61
2022/01/10 04:12:53;;;;;;;19.48;9.43;;;;;;;-5.64;71.57;98793.59;5072164;28;20035;-61
2022/01/10 04:15:19;;;;;;;19.65;9.40;;;;;;;-5.57;71.21;98791.22;5054930;28;20052;-60
2022/01/10 04:17:45;;;;;;;14.98;7.97;;;;;;;-5.51;71.23;98794.00;5050827;28;20041;-63
2022/01/10 04:20:12;;;;;;;20.60;9.05;;;;;;;-5.57;71.11;98793.81;5046412;28;20098;-60
2022/01/10 04:22:38;;;;;;;20.98;8.82;;;;;;;-5.57;71.29;98793.81;5051890;28;20464;-60
2022/01/10 04:25:05;;;;;;;23.58;9.48;;;;;;;-5.53;70.80;98795.13;5050469;28;20049;-64
2022/01/10 04:27:32;;;;;;;17.75;8.93;;;;;;;-5.46;71.17;98803.91;5050004;28;20041;-60
2022/01/10 04:29:59;;;;;;;16.50;8.05;;;;;;;-5.43;71.47;98810.56;5050512;28;20052;-59
2022/01/10 04:32:29;;;;;;;18.35;8.38;;;;;;;-5.44;71.28;98817.50;5051595;28;20128;-60
2022/01/10 04:34:55;;;;;;;17.43;8.67;;;;;;;-5.35;71.36;98808.84;5050361;28;20043;-62
2022/01/10 04:37:21;;;;;;;21.92;9.80;;;;;;;-5.35;70.71;98814.00;5050200;28;20096;-61
2022/01/10 04:39:47;;;;;;;15.60;8.20;;;;;;;-5.33;71.16;98821.59;5050716;28;20443;-61
2022/01/10 04:42:13;;;;;;;15.27;7.55;;;;;;;-5.30;70.48;98824.69;5056574;28;20113;-60
2022/01/10 04:44:41;;;;;;;16.80;8.55;;;;;;;-5.34;70.98;98819.97;5051539;28;20522;-60
2022/01/10 04:47:07;;;;;;;18.20;7.72;;;;;;;-5.41;70.74;98821.53;5050060;28;20041;-61
2022/01/10 04:49:54;;;;;;;17.23;8.48;;;;;;;-5.54;71.74;98817.56;5050224;28;20441;-60
2022/01/10 04:52:19;;;;;;;14.82;8.65;;;;;;;-5.46;71.20;98822.00;5051300;28;20040;-63
2022/01/10 04:54:45;;;;;;;22.10;8.10;;;;;;;-5.44;71.22;98827.81;5050242;28;20090;-64
2022/01/10 04:57:11;;;;;;;18.83;8.60;;;;;;;-5.43;71.32;98829.44;5033630;28;20049;-61
2022/01/10 04:59:37;;;;;;;15.48;6.65;;;;;;;-5.38;70.38;98832.41;5051207;28;20044;-61
2022/01/10 05:02:03;;;;;;;16.30;7.65;;;;;;;-5.32;71.58;98821.47;5050464;28;20386;-61
2022/01/10 05:04:30;;;;;;;16.40;7.38;;;;;;;-5.32;71.39;98831.78;5083722;28;20119;-60
2022/01/10 05:06:58;;;;;;;15.00;7.25;;;;;;;-5.34;71.11;98823.38;5051073;28;20037;-61
2022/01/10 05:09:26;;;;;;;14.77;7.43;;;;;;;-5.36;70.55;98825.28;5033954;28;20044;-61
2022/01/10 05:12:02;;;;;;;15.00;7.75;;;;;;;-5.29;70.05;98838.44;5065518;28;20041;-59
2022/01/10 05:14:29;;;;;;;16.92;7.20;;;;;;;-5.30;70.54;98836.78;5020745;28;20155;-64
2022/01/10 05:16:56;;;;;;;20.13;7.70;;;;;;;-5.36;71.16;98843.38;5071373;28;20067;-60
2022/01/10 05:19:22;;;;;;;16.75;7.22;;;;;;;-5.34;70.93;98851.78;5053528;28;20032;-60
2022/01/10 05:21:48;;;;;;;15.02;7.20;;;;;;;-5.23;71.15;98844.78;5053503;28;20044;-59
2022/01/10 05:24:15;;;;;;;15.45;7.28;;;;;;;-5.23;69.72;98857.69;5070063;28;20055;-58
2022/01/10 05:26:44;;;;;;;15.77;6.97;;;;;;;-5.25;70.27;98845.72;5053157;28;20045;-60
2022/01/10 05:29:13;;;;;;;14.95;6.43;;;;;;;-5.40;70.61;98854.16;5068180;28;20133;-61
2022/01/10 05:31:39;;;;;;;16.48;7.05;;;;;;;-5.48;70.74;98850.53;5053026;28;20064;-61
2022/01/10 05:34:26;;;;;;;16.20;6.30;;;;;;;-5.50;71.32;98861.97;5065267;28;20482;-62
2022/01/10 05:36:52;;;;;;;16.17;6.25;;;;;;;-5.54;71.26;98851.13;5049701;28;20061;-61
2022/01/10 05:39:18;;;;;;;14.18;6.05;;;;;;;-5.49;71.48;98867.00;5049784;28;20041;-61
2022/01/10 05:41:45;;;;;;;11.00;5.65;;;;;;;-5.67;71.36;98868.78;5033241;28;20052;-62
2022/01/10 05:44:14;;;;;;;14.20;6.60;;;;;;;-5.58;71.90;98875.63;5049995;28;20087;-62
2022/01/10 05:46:44;;;;;;;14.73;6.40;;;;;;;-5.53;71.74;98876.00;5033142;28;20456;-61
2022/01/10 05:49:12;;;;;;;12.48;5.53;;;;;;;-5.44;70.77;98881.22;5054939;28;20072;-62
2022/01/10 05:51:40;;;;;;;16.27;6.82;;;;;;;-5.52;70.90;98879.41;5053001;28;20052;-61
2022/01/10 05:54:28;;;;;;;20.02;7.22;;;;;;;-5.45;71.57;98889.94;5069350;28;20047;-63
2022/01/10 05:56:55;;;;;;;14.70;6.60;;;;;;;-5.45;71.05;98892.53;5069423;28;20035;-62
2022/01/10 05:59:24;;;;;;;10.40;6.03;;;;;;;-5.40;71.29;98898.06;5069309;28;20139;-61
2022/01/10 06:01:50;;;;;;;14.25;5.88;;;;;;;-5.45;71.61;98901.09;5032041;28;20059;-63
2022/01/10 06:04:19;;;;;;;14.43;6.68;;;;;;;-5.46;71.12;98889.13;5034753;28;20040;-62
2022/01/10 06:06:46;;;;;;;16.10;6.57;;;;;;;-5.43;71.43;98903.53;5051948;28;20040;-60
2022/01/10 06:09:12;;;;;;;14.05;5.75;;;;;;;-5.45;71.91;98905.44;5040541;28;20402;-61
2022/01/10 06:11:40;;;;;;;13.57;6.25;;;;;;;-5.43;71.38;98904.34;5045094;28;20045;-62
2022/01/10 06:14:10;;;;;;;13.77;6.57;;;;;;;-5.36;71.23;98907.94;5044483;28;20061;-61
2022/01/10 06:16:36;;;;;;;11.93;5.40;;;;;;;-5.25;70.86;98909.50;5032823;28;20895;-62
2022/01/10 06:19:02;;;;;;;12.18;5.90;;;;;;;-5.24;70.26;98903.38;5031634;28;20421;-62
2022/01/10 06:21:29;;;;;;;9.93;5.20;;;;;;;-5.33;70.66;98912.00;5049590;28;20471;-61
2022/01/10 06:23:57;;;;;;;10.25;5.30;;;;;;;-5.36;70.48;98907.94;5050466;28;20051;-63
2022/01/10 06:26:24;;;;;;;10.18;4.82;;;;;;;-5.31;70.44;98913.50;5055518;28;20456;-60
2022/01/10 06:28:50;;;;;;;9.55;5.93;;;;;;;-5.36;70.29;98913.13;5085214;28;20040;-61
2022/01/10 06:31:16;;;;;;;11.68;5.43;;;;;;;-5.44;70.66;98913.06;5059390;28;20059;-63
2022/01/10 06:33:53;;;;;;;13.05;5.68;;;;;;;-5.49;71.18;98916.06;5053587;28;20490;-62
2022/01/10 06:36:20;;;;;;;13.98;5.85;;;;;;;-5.43;70.58;98914.69;5025885;28;20142;-61
2022/01/10 06:38:49;;;;;;;9.20;4.82;;;;;;;-5.38;70.63;98916.81;5049026;28;20426;-62
2022/01/10 06:41:15;;;;;;;10.68;5.35;;;;;;;-5.39;70.80;98916.00;5042880;28;20045;-63
2022/01/10 06:43:41;;;;;;;12.05;5.07;;;;;;;-5.49;71.19;98915.25;5030444;28;20033;-63
2022/01/10 06:46:09;;;;;;;8.98;5.53;;;;;;;-5.26;71.81;98924.22;5020271;28;20444;-60
2022/01/10 06:48:38;;;;;;;11.85;5.65;;;;;;;-5.03;70.94;98921.16;5018217;28;20398;-63
2022/01/10 06:51:04;;;;;;;14.02;5.95;;;;;;;-5.02;69.42;98922.78;5050067;28;20044;-62
2022/01/10 06:53:32;;;;;;;13.98;6.53;;;;;;;-5.12;70.06;98925.44;5050187;28;20056;-62
2022/01/10 06:56:00;;;;;;;14.88;5.43;;;;;;;-5.11;69.89;98924.50;5038281;28;20091;-64
2022/01/10 06:58:27;;;;;;;8.85;4.70;;;;;;;-5.10;70.59;98926.13;5054434;28;20413;-62
2022/01/10 07:00:53;;;;;;;9.35;4.50;;;;;;;-5.14;70.07;98914.47;5051918;28;20056;-62
2022/01/10 07:03:19;;;;;;;11.63;5.13;;;;;;;-5.32;70.74;98931.75;5053090;28;20120;-61
2022/01/10 07:05:58;;;;;;;8.70;5.03;;;;;;;-5.27;71.40;98932.91;5053734;28;20383;-64
2022/01/10 07:08:24;;;;;;;9.30;3.83;;;;;;;-5.21;70.13;98938.44;5051683;28;20064;-61
2022/01/10 07:10:54;;;;;;;;;;;;;;;-5.12;70.07;98932.38;5054146;28;20051;-62
2022/01/10 07:13:25;;;;;;;10.82;4.70;;;;;;;-5.10;69.94;98940.81;5046807;28;19927;-62
2022/01/10 07:15:52;;;;;;;9.45;5.65;;;;;;;-5.07;69.61;98935.34;5065084;28;20140;-63
2022/01/10 07:18:21;;;;;;;8.20;4.72;;;;;;;-5.11;69.73;98942.59;5052095;28;20041;-59
2022/01/10 07:20:51;;;;;;;7.05;4.40;;;;;;;-5.17;70.17;98935.44;5037144;28;20234;-61
2022/01/10 07:23:23;;;;;;;11.23;5.57;;;;;;;-5.37;70.78;98939.13;5066110;28;20427;-62
2022/01/10 07:25:50;;;;;;;10.82;5.60;;;;;;;-5.35;71.04;98943.19;5068713;28;20050;-61
2022/01/10 07:28:16;;;;;;;10.68;5.60;;;;;;;-5.21;71.46;98941.03;5069125;28;20078;-61
2022/01/10 07:30:42;;;;;;;11.15;4.88;;;;;;;-5.13;70.40;98949.66;5068171;28;20072;-63
2022/01/10 07:33:08;;;;;;;10.35;4.57;;;;;;;-5.10;69.73;98946.78;5069092;28;20040;-62
2022/01/10 07:35:34;;;;;;;9.88;5.70;;;;;;;-5.08;70.41;98952.63;5068571;28;20131;-62
2022/01/10 07:38:00;;;;;;;11.48;5.80;;;;;;;-5.07;70.30;98941.31;5067514;28;20064;-60
2022/01/10 07:40:26;;;;;;;12.50;5.35;;;;;;;-4.98;69.49;98943.97;5070429;28;20375;-63
2022/01/10 07:42:52;;;;;;;12.00;5.15;;;;;;;-5.05;69.72;98951.53;5069765;28;20089;-61
2022/01/10 07:45:32;;;;;;;7.90;3.75;;;;;;;-4.98;69.76;98955.13;5069774;28;20068;-61
2022/01/10 07:47:59;;;;;;;8.43;4.28;;;;;;;-5.04;69.72;98946.19;5071005;28;20118;-62
2022/01/10 07:50:25;;;;;;;9.93;3.97;;;;;;;-5.11;69.58;98928.88;5069424;28;20048;-62
2022/01/10 07:52:50;;;;;;;12.38;5.60;;;;;;;-4.88;71.30;98947.28;5047293;28;20037;-61
2022/01/10 07:55:16;;;;;;;11.18;5.30;;;;;;;-4.86;70.28;98942.78;5051087;28;20132;-60
2022/01/10 07:57:42;;;;;;;11.13;5.05;;;;;;;-4.91;69.20;98945.84;5046710;28;20063;-62
2022/01/10 08:00:09;;;;;;;10.38;5.10;;;;;;;-4.98;70.44;98951.75;5030041;28;20499;-62
2022/01/10 08:02:41;;;;;;;5.60;3.00;;;;;;;-5.07;69.96;98948.28;5048677;28;20465;-60
2022/01/10 08:05:08;;;;;;;7.63;5.03;;;;;;;-5.15;70.79;98945.59;5050430;28;20509;-61
2022/01/10 08:07:34;;;;;;;6.85;4.22;;;;;;;-5.10;70.23;98945.97;5047831;28;20127;-60
2022/01/10 08:10:02;;;;;;;10.60;4.88;;;;;;;-5.03;69.55;98940.09;5049565;28;20555;-60
2022/01/10 08:12:29;;;;;;;8.02;3.80;;;;;;;-5.04;69.93;98956.53;5048809;28;20037;-61
2022/01/10 08:14:54;;;;;;;13.18;4.57;;;;;;;-4.95;69.83;98949.66;5051580;28;20044;-61
2022/01/10 08:17:20;;;;;;;9.05;4.10;;;;;;;-4.95;69.98;98947.06;5048523;28;20049;-62
2022/01/10 08:19:46;;;;;;;6.65;3.53;;;;;;;-4.97;69.55;98949.03;5048629;28;20045;-62
2022/01/10 08:22:12;;;;;;;11.45;5.28;;;;;;;-5.05;70.55;98957.50;5047731;28;20525;-61
2022/01/10 08:24:38;;;;;;;7.88;4.50;;;;;;;-4.99;70.03;98966.44;5048793;28;20048;-63
2022/01/10 08:27:04;;;;;;;10.77;5.13;;;;;;;-4.94;69.70;98955.63;5049143;28;20041;-62
2022/01/10 08:29:30;;;;;;;14.80;5.60;;;;;;;-4.75;70.58;98965.81;5049545;28;20110;-60
2022/01/10 08:31:56;;;;;;;9.43;4.90;;;;;;;-4.70;68.70;98962.81;5045414;28;20132;-64
2022/01/10 08:34:24;;;;;;;11.88;5.85;;;;;;;-4.67;69.23;98957.34;5049067;28;20055;-62
2022/01/10 08:36:51;;;;;;;8.10;4.18;;;;;;;-4.68;69.04;98966.03;5047268;28;20067;-61
2022/01/10 08:39:18;;;;;;;7.50;5.00;;;;;;;-4.67;69.50;98967.69;5045894;28;20045;-62
2022/01/10 08:41:44;;;;;;;5.97;4.28;;;;;;;-4.64;68.91;98955.25;5053614;28;20045;-61
2022/01/10 08:44:14;;;;;;;8.23;4.88;;;;;;;-4.69;69.58;98965.22;5065541;28;20413;-60
2022/01/10 08:46:41;;;;;;;12.55;5.20;;;;;;;-4.51;68.94;98972.97;5033765;28;20513;-59
2022/01/10 08:49:06;;;;;;;11.57;5.25;;;;;;;-4.52;69.09;98957.59;5066574;28;20051;-64
2022/01/10 08:51:34;;;;;;;8.85;4.15;;;;;;;-4.42;68.75;98968.66;5067998;28;20040;-61
2022/01/10 08:54:01;;;;;;;10.02;5.05;;;;;;;-4.34;68.62;98968.72;5066918;28;20523;-63
2022/01/10 08:56:27;;;;;;;13.57;5.22;;;;;;;-4.23;68.29;98971.06;5067467;28;20068;-60
2022/01/10 08:58:53;;;;;;;8.50;3.80;;;;;;;-4.23;68.04;98965.88;5050545;28;20615;-62
2022/01/10 09:01:21;;;;;;;8.80;4.18;;;;;;;-4.36;68.33;98973.22;5052315;28;20045;-61
2022/01/10 09:03:47;;;;;;;7.57;4.38;;;;;;;-4.24;68.40;98977.16;5067884;28;20461;-62
2022/01/10 09:06:14;;;;;;;9.75;4.30;;;;;;;-4.15;67.08;98978.88;5068212;28;20048;-61
2022/01/10 09:08:41;;;;;;;11.23;4.15;;;;;;;-4.07;66.59;98990.22;5066195;28;20386;-63
2022/01/10 09:11:07;;;;;;;7.05;4.68;;;;;;;-4.18;66.81;98983.50;5067127;28;20044;-63
2022/01/10 09:13:33;;;;;;;7.25;3.75;;;;;;;-4.26;67.39;98978.31;5050412;28;20036;-64
2022/01/10 09:16:01;;;;;;;9.02;4.05;;;;;;;-4.32;67.46;98982.31;5066770;28;20053;-62
2022/01/10 09:18:28;;;;;;;13.20;4.95;;;;;;;-4.29;67.92;98973.41;5067444;28;20064;-61
2022/01/10 09:20:55;;;;;;;8.75;4.72;;;;;;;-4.24;68.37;98979.75;5069759;28;20044;-62
2022/01/10 09:23:25;;;;;;;10.75;4.72;;;;;;;-4.18;67.67;98978.34;5049257;28;20044;-63
2022/01/10 09:25:51;;;;;;;9.32;4.78;;;;;;;-4.16;67.94;98979.81;5067488;28;20084;-61
2022/01/10 09:28:18;;;;;;;6.43;4.30;;;;;;;-4.23;67.46;98967.66;5067413;28;20044;-62
2022/01/10 09:30:44;;;;;;;13.45;5.65;;;;;;;-4.29;67.79;98973.41;5067750;28;20060;-63
2022/01/10 09:33:11;;;;;;;5.82;4.35;;;;;;;-4.30;68.23;98964.03;5048948;28;20202;-63
2022/01/10 09:35:36;;;;;;;9.23;5.18;;;;;;;-4.42;69.01;98972.03;5065454;28;20528;-61
2022/01/10 09:38:03;;;;;;;12.45;5.18;;;;;;;-4.28;68.26;98990.59;5068452;28;20037;-62
2022/01/10 09:40:29;;;;;;;10.93;5.07;;;;;;;-4.28;68.02;98988.81;5067715;28;20147;-61
2022/01/10 09:42:55;;;;;;;12.07;5.00;;;;;;;-4.25;67.40;98974.75;5067105;28;20040;-61
2022/01/10 09:45:21;;;;;;;14.05;5.50;;;;;;;-4.19;68.28;98971.56;5050936;28;20091;-61
2022/01/10 09:47:47;;;;;;;11.93;5.40;;;;;;;-4.25;68.35;98961.81;5066650;28;20511;-64
2022/01/10 09:50:16;;;;;;;11.50;4.65;;;;;;;-4.55;68.52;98968.25;5063460;28;20045;-61
2022/01/10 09:52:44;;;;;;;10.63;4.75;;;;;;;-4.47;68.85;98966.53;5042088;28;20041;-62
2022/01/10 09:55:10;;;;;;;8.63;4.90;;;;;;;-4.46;69.37;98977.69;5077611;28;20063;-63
2022/01/10 09:57:36;;;;;;;9.38;4.18;;;;;;;-4.54;68.49;98968.09;5070625;28;20037;-61
2022/01/10 10:00:05;;;;;;;8.23;4.97;;;;;;;-4.40;69.49;98967.53;5053741;28;20041;-61
2022/01/10 10:02:40;;;;;;;9.48;4.45;;;;;;;-4.49;68.73;98959.88;5039101;28;20033;-62
2022/01/10 10:05:09;;;;;;;8.27;4.55;;;;;;;-4.58;69.32;98953.84;5051079;28;20052;-60
2022/01/10 10:07:39;;;;;;;10.98;5.38;;;;;;;-4.49;70.64;98973.63;5051285;28;20040;-60
2022/01/10 10:10:12;;;;;;;10.75;4.20;;;;;;;-4.40;68.75;98961.56;5069644;28;20547;-62
2022/01/10 10:12:42;;;;;;;9.30;4.53;;;;;;;-4.55;69.61;98966.47;5070524;28;20047;-60
2022/01/10 10:15:11;;;;;;;8.82;4.15;;;;;;;-4.53;69.08;98979.25;5067713;28;20131;-61
2022/01/10 10:17:39;;;;;;;10.27;3.95;;;;;;;-4.45;68.93;98974.13;5056318;28;20044;-64
2022/01/10 10:20:10;;;;;;;4.80;3.05;;;;;;;-4.43;68.88;98979.97;5050913;28;20048;-63
2022/01/10 10:22:40;;;;;;;9.20;4.00;;;;;;;-4.31;68.31;98981.34;5050307;28;20040;-63
2022/01/10 10:25:07;;;;;;;16.52;5.25;;;;;;;-4.48;68.11;98982.19;5050546;28;20136;-63
2022/01/10 10:27:51;;;;;;;9.27;4.45;;;;;;;-4.45;68.75;98974.13;5018405;28;20044;-62
2022/01/10 10:30:23;;;;;;;10.95;3.90;;;;;;;-4.21;68.28;98987.22;5056579;28;20041;-64
2022/01/10 10:32:50;;;;;;;9.02;3.88;;;;;;;-4.12;67.56;98990.66;5048702;28;20056;-63
2022/01/10 10:35:16;;;;;;;8.48;3.55;;;;;;;-4.28;66.86;98975.06;5050279;28;20056;-62
2022/01/10 10:37:44;;;;;;;12.27;4.50;;;;;;;-4.22;68.21;98989.97;5055597;28;20126;-62
2022/01/10 10:40:14;;;;;;;9.63;4.55;;;;;;;-4.36;67.61;98957.69;5061558;28;20081;-63
2022/01/10 10:42:42;;;;;;;6.45;4.03;;;;;;;-4.13;67.60;98982.09;5052407;28;20041;-65
2022/01/10 10:45:10;;;;;;;8.02;4.03;;;;;;;-4.16;67.72;98989.38;5049104;28;20045;-63
2022/01/10 10:47:38;;;;;;;7.97;4.25;;;;;;;-4.15;67.58;98985.78;5033497;28;20140;-63
2022/01/10 10:50:06;;;;;;;6.97;4.15;;;;;;;-4.28;67.63;98982.81;5049618;28;20517;-63
2022/01/10 10:52:34;;;;;;;6.07;3.45;;;;;;;-4.36;67.77;98991.31;5047080;28;20068;-61
2022/01/10 10:55:09;;;;;;;6.07;3.70;;;;;;;-4.33;67.48;98983.25;5055243;28;20486;-62
2022/01/10 10:57:36;;;;;;;7.57;3.97;;;;;;;-4.34;67.79;98990.22;5067052;28;20064;-62
2022/01/10 11:00:05;;;;;;;9.00;4.43;;;;;;;-4.22;68.17;99003.72;5053390;28;20094;-61
2022/01/10 11:02:31;;;;;;;6.72;3.97;;;;;;;-4.30;67.90;98998.47;5050373;28;20045;-62
2022/01/10 11:05:27;;;;;;;9.68;4.32;;;;;;;-4.47;68.39;98992.41;5056056;28;20429;-64
2022/01/10 11:07:57;;;;;;;7.32;4.65;;;;;;;-4.42;68.13;98987.56;5011814;28;20069;-63
2022/01/10 11:10:26;;;;;;;8.35;3.58;;;;;;;-4.29;68.13;98987.19;5049208;28;20045;-63
2022/01/10 11:12:57;;;;;;;4.85;3.10;;;;;;;-4.29;67.64;98987.19;5051171;28;20387;-62
2022/01/10 11:15:25;;;;;;;10.55;4.15;;;;;;;-4.30;67.76;98982.97;5068986;28;20413;-62
2022/01/10 11:17:59;;;;;;;10.30;4.32;;;;;;;-4.31;68.35;98988.31;5070206;28;20048;-61
2022/01/10 11:20:29;;;;;;;11.38;3.47;;;;;;;-4.37;67.96;98994.88;5014461;28;20045;-64
2022/01/10 11:22:57;;;;;;;6.07;3.83;;;;;;;-4.34;67.55;98985.03;5057907;28;20522;-63
2022/01/10 11:25:36;;;;;;;7.95;3.53;;;;;;;-4.39;67.55;99002.78;5033663;28;20569;-63
2022/01/10 11:28:08;;;;;;;7.28;3.80;;;;;;;-4.47;67.86;98987.22;5048006;28;20056;-62
2022/01/10 11:30:40;;;;;;;5.07;2.33;;;;;;;-4.50;67.92;98984.94;5050451;28;20484;-64
2022/01/10 11:33:10;;;;;;;7.45;4.13;;;;;;;-4.40;68.23;98988.25;5050345;28;20048;-62
2022/01/10 11:35:51;;;;;;;10.50;4.38;;;;;;;-4.46;68.52;98986.25;5049464;28;20072;-65